sensor_id;sensor_type;location;lat;lon;timestamp;temperature;humidity
16158;DHT22;8184;60.256;18.694;2022-09-19T00:01:08;11.90;99.90
16158;DHT22;8184;60.256;18.694;2022-09-19T00:03:38;11.90;99.90
16158;DHT22;8184;60.256;18.694;2022-09-19T00:06:07;11.80;99.90
16158;DHT22;8184;60.256;18.694;2022-09-19T00:08:37;11.90;99.90
16158;DHT22;8184;60.256;18.694;2022-09-19T00:11:09;11.90;99.90
16158;DHT22;8184;60.256;18.694;2022-09-19T00:13:39;11.80;99.90
16158;DHT22;8184;60.256;18.694;2022-09-19T00:16:12;11.90;99.90
16158;DHT22;8184;60.256;18.694;2022-09-19T00:18:40;11.80;99.90
16158;DHT22;8184;60.256;18.694;2022-09-19T00:21:08;11.80;99.90
16158;DHT22;8184;60.256;18.694;2022-09-19T00:23:39;11.80;99.90
16158;DHT22;8184;60.256;18.694;2022-09-19T00:26:24;11.80;99.90
16158;DHT22;8184;60.256;18.694;2022-09-19T00:28:52;11.80;99.90
16158;DHT22;8184;60.256;18.694;2022-09-19T00:31:20;11.80;99.90
16158;DHT22;8184;60.256;18.694;2022-09-19T00:33:48;11.90;99.90
16158;DHT22;8184;60.256;18.694;2022-09-19T00:36:17;11.90;99.90
16158;DHT22;8184;60.256;18.694;2022-09-19T00:38:47;11.90;99.90
16158;DHT22;8184;60.256;18.694;2022-09-19T00:41:16;11.80;99.90
16158;DHT22;8184;60.256;18.694;2022-09-19T00:43:47;11.80;99.90
16158;DHT22;8184;60.256;18.694;2022-09-19T00:46:15;11.80;99.90
16158;DHT22;8184;60.256;18.694;2022-09-19T00:48:43;11.80;99.90
16158;DHT22;8184;60.256;18.694;2022-09-19T00:51:13;11.80;99.90
16158;DHT22;8184;60.256;18.694;2022-09-19T00:53:44;11.80;99.90
16158;DHT22;8184;60.256;18.694;2022-09-19T00:56:14;11.80;99.90
16158;DHT22;8184;60.256;18.694;2022-09-19T00:58:44;11.80;99.90
16158;DHT22;8184;60.256;18.694;2022-09-19T01:01:13;11.80;99.90
16158;DHT22;8184;60.256;18.694;2022-09-19T01:03:43;11.70;99.90
16158;DHT22;8184;60.256;18.694;2022-09-19T01:06:18;11.50;99.90
16158;DHT22;8184;60.256;18.694;2022-09-19T01:08:55;11.50;99.90
16158;DHT22;8184;60.256;18.694;2022-09-19T01:11:31;11.50;99.90
16158;DHT22;8184;60.256;18.694;2022-09-19T01:14:05;11.50;99.90
16158;DHT22;8184;60.256;18.694;2022-09-19T01:16:40;11.60;99.90
16158;DHT22;8184;60.256;18.694;2022-09-19T01:19:14;11.60;99.90
16158;DHT22;8184;60.256;18.694;2022-09-19T01:21:46;11.60;99.90
16158;DHT22;8184;60.256;18.694;2022-09-19T01:27:19;11.60;99.90
16158;DHT22;8184;60.256;18.694;2022-09-19T01:29:53;11.60;99.90
16158;DHT22;8184;60.256;18.694;2022-09-19T01:32:25;11.60;99.90
16158;DHT22;8184;60.256;18.694;2022-09-19T01:34:55;11.60;99.90
16158;DHT22;8184;60.256;18.694;2022-09-19T01:37:28;11.60;99.90
16158;DHT22;8184;60.256;18.694;2022-09-19T01:39:59;11.60;99.90
16158;DHT22;8184;60.256;18.694;2022-09-19T01:42:29;11.50;99.90
16158;DHT22;8184;60.256;18.694;2022-09-19T01:44:58;11.50;99.90
16158;DHT22;8184;60.256;18.694;2022-09-19T01:47:31;11.60;99.90
16158;DHT22;8184;60.256;18.694;2022-09-19T01:50:03;11.50;99.90
16158;DHT22;8184;60.256;18.694;2022-09-19T01:52:37;11.50;99.90
16158;DHT22;8184;60.256;18.694;2022-09-19T01:55:07;11.50;99.90
16158;DHT22;8184;60.256;18.694;2022-09-19T01:57:41;11.50;99.90
16158;DHT22;8184;60.256;18.694;2022-09-19T02:00:13;11.50;99.90
16158;DHT22;8184;60.256;18.694;2022-09-19T02:02:45;11.50;99.90
16158;DHT22;8184;60.256;18.694;2022-09-19T02:05:16;11.60;99.90
16158;DHT22;8184;60.256;18.694;2022-09-19T02:07:49;11.60;99.90
16158;DHT22;8184;60.256;18.694;2022-09-19T02:10:23;11.60;99.90
16158;DHT22;8184;60.256;18.694;2022-09-19T02:12:53;11.60;99.90
16158;DHT22;8184;60.256;18.694;2022-09-19T02:15:24;11.60;99.90
16158;DHT22;8184;60.256;18.694;2022-09-19T02:17:56;11.50;99.90
16158;DHT22;8184;60.256;18.694;2022-09-19T02:20:27;11.50;99.90
16158;DHT22;8184;60.256;18.694;2022-09-19T02:22:57;11.50;99.90
16158;DHT22;8184;60.256;18.694;2022-09-19T02:25:26;11.60;99.90
16158;DHT22;8184;60.256;18.694;2022-09-19T02:28:00;11.60;99.90
16158;DHT22;8184;60.256;18.694;2022-09-19T02:30:31;11.50;99.90
16158;DHT22;8184;60.256;18.694;2022-09-19T02:33:00;11.50;99.90
16158;DHT22;8184;60.256;18.694;2022-09-19T02:35:38;11.50;99.90
16158;DHT22;8184;60.256;18.694;2022-09-19T02:38:10;11.70;99.90
16158;DHT22;8184;60.256;18.694;2022-09-19T02:40:44;11.60;99.90
16158;DHT22;8184;60.256;18.694;2022-09-19T02:43:15;11.40;99.90
16158;DHT22;8184;60.256;18.694;2022-09-19T02:45:48;11.30;99.90
16158;DHT22;8184;60.256;18.694;2022-09-19T02:48:18;11.30;99.90
16158;DHT22;8184;60.256;18.694;2022-09-19T02:50:49;11.30;99.90
16158;DHT22;8184;60.256;18.694;2022-09-19T02:53:20;11.30;99.90
16158;DHT22;8184;60.256;18.694;2022-09-19T02:55:57;11.40;99.90
16158;DHT22;8184;60.256;18.694;2022-09-19T02:58:26;11.40;99.90
16158;DHT22;8184;60.256;18.694;2022-09-19T03:00:59;11.40;99.90
16158;DHT22;8184;60.256;18.694;2022-09-19T03:03:32;11.50;99.90
16158;DHT22;8184;60.256;18.694;2022-09-19T03:06:21;11.50;99.90
16158;DHT22;8184;60.256;18.694;2022-09-19T03:08:50;11.50;99.90
16158;DHT22;8184;60.256;18.694;2022-09-19T03:11:18;11.40;99.90
16158;DHT22;8184;60.256;18.694;2022-09-19T03:13:49;11.50;99.90
16158;DHT22;8184;60.256;18.694;2022-09-19T03:16:19;11.50;99.90
16158;DHT22;8184;60.256;18.694;2022-09-19T03:18:49;11.40;99.90
16158;DHT22;8184;60.256;18.694;2022-09-19T03:21:22;11.40;99.90
16158;DHT22;8184;60.256;18.694;2022-09-19T03:23:52;11.40;99.90
16158;DHT22;8184;60.256;18.694;2022-09-19T03:26:21;11.30;99.90
16158;DHT22;8184;60.256;18.694;2022-09-19T03:28:52;11.10;99.90
16158;DHT22;8184;60.256;18.694;2022-09-19T03:31:23;11.10;99.90
16158;DHT22;8184;60.256;18.694;2022-09-19T03:33:51;11.10;99.90
16158;DHT22;8184;60.256;18.694;2022-09-19T03:36:19;11.10;99.90
16158;DHT22;8184;60.256;18.694;2022-09-19T03:38:48;11.20;99.90
16158;DHT22;8184;60.256;18.694;2022-09-19T03:41:17;11.20;99.90
16158;DHT22;8184;60.256;18.694;2022-09-19T03:43:46;11.20;99.90
16158;DHT22;8184;60.256;18.694;2022-09-19T03:46:15;11.20;99.90
16158;DHT22;8184;60.256;18.694;2022-09-19T03:48:47;11.30;99.90
16158;DHT22;8184;60.256;18.694;2022-09-19T03:51:16;11.30;99.90
16158;DHT22;8184;60.256;18.694;2022-09-19T03:53:44;11.30;99.90
16158;DHT22;8184;60.256;18.694;2022-09-19T03:56:13;11.30;99.90
16158;DHT22;8184;60.256;18.694;2022-09-19T03:58:41;11.30;99.90
16158;DHT22;8184;60.256;18.694;2022-09-19T04:01:10;11.30;99.90
16158;DHT22;8184;60.256;18.694;2022-09-19T04:03:41;11.30;99.90
16158;DHT22;8184;60.256;18.694;2022-09-19T04:06:11;11.30;99.90
16158;DHT22;8184;60.256;18.694;2022-09-19T04:08:39;11.30;99.90
16158;DHT22;8184;60.256;18.694;2022-09-19T04:11:08;11.30;99.90
16158;DHT22;8184;60.256;18.694;2022-09-19T04:13:36;11.30;99.90
16158;DHT22;8184;60.256;18.694;2022-09-19T04:16:05;11.30;99.90
16158;DHT22;8184;60.256;18.694;2022-09-19T04:18:36;11.30;99.90
16158;DHT22;8184;60.256;18.694;2022-09-19T04:21:08;11.30;99.90
16158;DHT22;8184;60.256;18.694;2022-09-19T04:23:37;11.30;99.90
16158;DHT22;8184;60.256;18.694;2022-09-19T04:26:05;11.30;99.90
16158;DHT22;8184;60.256;18.694;2022-09-19T04:28:33;11.30;99.90
16158;DHT22;8184;60.256;18.694;2022-09-19T04:31:02;11.10;99.90
16158;DHT22;8184;60.256;18.694;2022-09-19T04:33:31;11.00;99.90
16158;DHT22;8184;60.256;18.694;2022-09-19T04:35:59;11.00;99.90
16158;DHT22;8184;60.256;18.694;2022-09-19T04:38:27;11.00;99.90
16158;DHT22;8184;60.256;18.694;2022-09-19T04:40:58;11.10;99.90
16158;DHT22;8184;60.256;18.694;2022-09-19T04:43:27;11.10;99.90
16158;DHT22;8184;60.256;18.694;2022-09-19T04:45:55;11.10;99.90
16158;DHT22;8184;60.256;18.694;2022-09-19T04:48:25;11.10;99.90
16158;DHT22;8184;60.256;18.694;2022-09-19T04:50:53;11.20;99.90
16158;DHT22;8184;60.256;18.694;2022-09-19T04:53:24;11.20;99.90
16158;DHT22;8184;60.256;18.694;2022-09-19T04:55:54;11.30;99.90
16158;DHT22;8184;60.256;18.694;2022-09-19T04:58:24;11.30;99.90
16158;DHT22;8184;60.256;18.694;2022-09-19T05:00:52;11.30;99.90
16158;DHT22;8184;60.256;18.694;2022-09-19T05:03:21;11.30;99.90
16158;DHT22;8184;60.256;18.694;2022-09-19T05:05:52;11.30;99.90
16158;DHT22;8184;60.256;18.694;2022-09-19T05:08:21;11.20;99.90
16158;DHT22;8184;60.256;18.694;2022-09-19T05:10:53;11.30;99.90
16158;DHT22;8184;60.256;18.694;2022-09-19T05:13:22;11.30;99.90
16158;DHT22;8184;60.256;18.694;2022-09-19T05:15:52;11.30;99.90
16158;DHT22;8184;60.256;18.694;2022-09-19T05:18:21;11.30;99.90
16158;DHT22;8184;60.256;18.694;2022-09-19T05:20:50;11.30;99.90
16158;DHT22;8184;60.256;18.694;2022-09-19T05:23:18;11.30;99.90
16158;DHT22;8184;60.256;18.694;2022-09-19T05:25:47;11.20;99.90
16158;DHT22;8184;60.256;18.694;2022-09-19T05:28:14;11.20;99.90
16158;DHT22;8184;60.256;18.694;2022-09-19T05:30:45;11.30;99.90
16158;DHT22;8184;60.256;18.694;2022-09-19T05:33:17;11.30;99.90
16158;DHT22;8184;60.256;18.694;2022-09-19T05:35:53;11.30;99.90
16158;DHT22;8184;60.256;18.694;2022-09-19T05:38:22;11.30;99.90
16158;DHT22;8184;60.256;18.694;2022-09-19T05:40:51;11.30;99.90
16158;DHT22;8184;60.256;18.694;2022-09-19T05:43:19;11.30;99.90
16158;DHT22;8184;60.256;18.694;2022-09-19T05:45:48;11.30;99.90
16158;DHT22;8184;60.256;18.694;2022-09-19T05:48:18;11.30;99.90
16158;DHT22;8184;60.256;18.694;2022-09-19T05:50:47;11.30;99.90
16158;DHT22;8184;60.256;18.694;2022-09-19T05:53:16;11.30;99.90
16158;DHT22;8184;60.256;18.694;2022-09-19T05:56:04;11.40;99.90
16158;DHT22;8184;60.256;18.694;2022-09-19T05:58:38;11.40;99.90
16158;DHT22;8184;60.256;18.694;2022-09-19T06:01:07;11.40;99.90
16158;DHT22;8184;60.256;18.694;2022-09-19T06:03:38;11.40;99.90
16158;DHT22;8184;60.256;18.694;2022-09-19T06:06:07;11.40;99.90
16158;DHT22;8184;60.256;18.694;2022-09-19T06:08:38;11.40;99.90
16158;DHT22;8184;60.256;18.694;2022-09-19T06:11:07;11.40;99.90
16158;DHT22;8184;60.256;18.694;2022-09-19T06:13:37;11.50;99.90
16158;DHT22;8184;60.256;18.694;2022-09-19T06:16:23;11.40;99.90
16158;DHT22;8184;60.256;18.694;2022-09-19T06:18:53;11.50;99.90
16158;DHT22;8184;60.256;18.694;2022-09-19T06:21:21;11.50;99.90
16158;DHT22;8184;60.256;18.694;2022-09-19T06:23:49;11.50;99.90
16158;DHT22;8184;60.256;18.694;2022-09-19T06:26:17;11.50;99.90
16158;DHT22;8184;60.256;18.694;2022-09-19T06:28:45;11.50;99.90
16158;DHT22;8184;60.256;18.694;2022-09-19T06:31:13;11.50;99.90
16158;DHT22;8184;60.256;18.694;2022-09-19T06:33:41;11.50;99.90
16158;DHT22;8184;60.256;18.694;2022-09-19T06:36:11;11.50;99.90
16158;DHT22;8184;60.256;18.694;2022-09-19T06:38:41;11.60;99.90
16158;DHT22;8184;60.256;18.694;2022-09-19T06:41:10;11.60;99.90
16158;DHT22;8184;60.256;18.694;2022-09-19T06:43:38;11.70;99.90
16158;DHT22;8184;60.256;18.694;2022-09-19T06:46:06;11.60;99.90
16158;DHT22;8184;60.256;18.694;2022-09-19T06:48:37;11.60;99.90
16158;DHT22;8184;60.256;18.694;2022-09-19T06:51:05;11.60;99.90
16158;DHT22;8184;60.256;18.694;2022-09-19T06:53:34;11.70;99.90
16158;DHT22;8184;60.256;18.694;2022-09-19T06:56:02;11.70;99.90
16158;DHT22;8184;60.256;18.694;2022-09-19T06:58:30;11.70;99.90
16158;DHT22;8184;60.256;18.694;2022-09-19T07:00:59;11.70;99.90
16158;DHT22;8184;60.256;18.694;2022-09-19T07:03:28;11.70;99.90
16158;DHT22;8184;60.256;18.694;2022-09-19T07:05:56;11.70;99.90
16158;DHT22;8184;60.256;18.694;2022-09-19T07:08:26;11.70;99.90
16158;DHT22;8184;60.256;18.694;2022-09-19T07:10:56;11.70;99.90
16158;DHT22;8184;60.256;18.694;2022-09-19T07:13:24;11.70;99.90
16158;DHT22;8184;60.256;18.694;2022-09-19T07:15:57;11.70;99.90
16158;DHT22;8184;60.256;18.694;2022-09-19T07:18:29;11.80;99.90
16158;DHT22;8184;60.256;18.694;2022-09-19T07:20:58;11.80;99.90
16158;DHT22;8184;60.256;18.694;2022-09-19T07:23:26;11.70;99.90
16158;DHT22;8184;60.256;18.694;2022-09-19T07:25:55;11.50;99.90
16158;DHT22;8184;60.256;18.694;2022-09-19T07:28:24;11.60;99.90
16158;DHT22;8184;60.256;18.694;2022-09-19T07:30:53;11.60;99.90
16158;DHT22;8184;60.256;18.694;2022-09-19T07:33:21;11.70;99.90
16158;DHT22;8184;60.256;18.694;2022-09-19T07:35:50;11.70;99.90
16158;DHT22;8184;60.256;18.694;2022-09-19T07:38:21;11.80;99.90
16158;DHT22;8184;60.256;18.694;2022-09-19T07:40:49;11.80;99.90
16158;DHT22;8184;60.256;18.694;2022-09-19T07:43:18;11.80;99.90
16158;DHT22;8184;60.256;18.694;2022-09-19T07:45:48;11.80;99.90
16158;DHT22;8184;60.256;18.694;2022-09-19T07:48:19;11.90;99.90
16158;DHT22;8184;60.256;18.694;2022-09-19T07:50:47;12.00;99.90
16158;DHT22;8184;60.256;18.694;2022-09-19T07:53:21;12.00;99.90
16158;DHT22;8184;60.256;18.694;2022-09-19T07:55:50;12.00;99.90
16158;DHT22;8184;60.256;18.694;2022-09-19T07:58:19;11.80;99.90
16158;DHT22;8184;60.256;18.694;2022-09-19T08:00:48;11.60;99.90
16158;DHT22;8184;60.256;18.694;2022-09-19T08:03:18;11.50;99.90
16158;DHT22;8184;60.256;18.694;2022-09-19T08:05:47;11.60;99.90
16158;DHT22;8184;60.256;18.694;2022-09-19T08:08:16;11.70;99.90
16158;DHT22;8184;60.256;18.694;2022-09-19T08:10:44;11.80;99.90
16158;DHT22;8184;60.256;18.694;2022-09-19T08:13:14;11.70;99.90
16158;DHT22;8184;60.256;18.694;2022-09-19T08:15:45;11.70;99.90
16158;DHT22;8184;60.256;18.694;2022-09-19T08:18:17;11.90;99.90
16158;DHT22;8184;60.256;18.694;2022-09-19T08:20:46;11.90;99.90
16158;DHT22;8184;60.256;18.694;2022-09-19T08:23:15;11.90;99.90
16158;DHT22;8184;60.256;18.694;2022-09-19T08:25:44;12.00;99.90
16158;DHT22;8184;60.256;18.694;2022-09-19T08:28:14;12.10;99.90
16158;DHT22;8184;60.256;18.694;2022-09-19T08:30:43;12.10;99.90
16158;DHT22;8184;60.256;18.694;2022-09-19T08:33:12;12.10;99.90
16158;DHT22;8184;60.256;18.694;2022-09-19T08:35:41;12.10;99.90
16158;DHT22;8184;60.256;18.694;2022-09-19T08:38:10;12.10;99.90
16158;DHT22;8184;60.256;18.694;2022-09-19T08:40:51;12.10;99.90
16158;DHT22;8184;60.256;18.694;2022-09-19T08:43:23;12.10;99.90
16158;DHT22;8184;60.256;18.694;2022-09-19T08:45:59;12.10;99.90
16158;DHT22;8184;60.256;18.694;2022-09-19T08:48:32;12.10;99.90
16158;DHT22;8184;60.256;18.694;2022-09-19T08:51:06;12.10;99.90
16158;DHT22;8184;60.256;18.694;2022-09-19T08:53:41;12.10;99.90
16158;DHT22;8184;60.256;18.694;2022-09-19T08:56:12;12.10;99.90
16158;DHT22;8184;60.256;18.694;2022-09-19T08:58:42;12.10;99.90
16158;DHT22;8184;60.256;18.694;2022-09-19T09:01:12;12.00;99.90
16158;DHT22;8184;60.256;18.694;2022-09-19T09:03:47;12.00;99.90
16158;DHT22;8184;60.256;18.694;2022-09-19T09:06:25;12.00;99.90
16158;DHT22;8184;60.256;18.694;2022-09-19T09:08:58;11.90;99.90
16158;DHT22;8184;60.256;18.694;2022-09-19T09:11:34;12.00;99.90
16158;DHT22;8184;60.256;18.694;2022-09-19T09:14:19;12.10;99.90
16158;DHT22;8184;60.256;18.694;2022-09-19T09:17:22;12.00;99.90
16158;DHT22;8184;60.256;18.694;2022-09-19T09:20:00;12.10;99.90
16158;DHT22;8184;60.256;18.694;2022-09-19T09:22:36;12.10;99.90
16158;DHT22;8184;60.256;18.694;2022-09-19T09:25:08;12.20;99.90
16158;DHT22;8184;60.256;18.694;2022-09-19T09:27:38;12.20;99.90
16158;DHT22;8184;60.256;18.694;2022-09-19T09:30:11;12.30;99.90
16158;DHT22;8184;60.256;18.694;2022-09-19T09:32:40;12.20;99.90
16158;DHT22;8184;60.256;18.694;2022-09-19T09:35:13;12.20;99.90
16158;DHT22;8184;60.256;18.694;2022-09-19T09:37:50;12.10;99.90
16158;DHT22;8184;60.256;18.694;2022-09-19T09:40:22;12.10;99.90
16158;DHT22;8184;60.256;18.694;2022-09-19T09:43:11;12.00;99.90
16158;DHT22;8184;60.256;18.694;2022-09-19T09:45:44;12.00;99.90
16158;DHT22;8184;60.256;18.694;2022-09-19T09:48:15;12.00;99.90
16158;DHT22;8184;60.256;18.694;2022-09-19T09:50:49;11.90;99.90
16158;DHT22;8184;60.256;18.694;2022-09-19T09:53:26;12.00;99.90
16158;DHT22;8184;60.256;18.694;2022-09-19T09:56:00;12.00;99.90
16158;DHT22;8184;60.256;18.694;2022-09-19T09:58:48;12.00;99.90
16158;DHT22;8184;60.256;18.694;2022-09-19T10:01:29;11.90;99.90
16158;DHT22;8184;60.256;18.694;2022-09-19T10:04:20;11.80;99.90
16158;DHT22;8184;60.256;18.694;2022-09-19T10:06:53;11.80;99.90
16158;DHT22;8184;60.256;18.694;2022-09-19T10:09:29;11.80;99.90
16158;DHT22;8184;60.256;18.694;2022-09-19T10:11:59;11.90;99.90
16158;DHT22;8184;60.256;18.694;2022-09-19T10:14:54;11.90;99.90
16158;DHT22;8184;60.256;18.694;2022-09-19T10:17:23;12.00;99.90
16158;DHT22;8184;60.256;18.694;2022-09-19T10:19:52;12.10;99.90
16158;DHT22;8184;60.256;18.694;2022-09-19T10:22:23;12.10;99.90
16158;DHT22;8184;60.256;18.694;2022-09-19T10:24:52;12.20;99.90
16158;DHT22;8184;60.256;18.694;2022-09-19T10:27:24;12.20;99.90
16158;DHT22;8184;60.256;18.694;2022-09-19T10:29:54;12.30;99.90
16158;DHT22;8184;60.256;18.694;2022-09-19T10:32:26;12.30;99.90
16158;DHT22;8184;60.256;18.694;2022-09-19T10:34:54;12.20;99.90
16158;DHT22;8184;60.256;18.694;2022-09-19T10:37:22;12.10;99.90
16158;DHT22;8184;60.256;18.694;2022-09-19T10:39:59;12.10;99.90
16158;DHT22;8184;60.256;18.694;2022-09-19T10:42:33;12.00;99.90
16158;DHT22;8184;60.256;18.694;2022-09-19T10:45:14;12.00;99.90
16158;DHT22;8184;60.256;18.694;2022-09-19T10:47:43;12.00;99.90
16158;DHT22;8184;60.256;18.694;2022-09-19T10:50:15;11.90;99.90
16158;DHT22;8184;60.256;18.694;2022-09-19T10:52:43;12.00;99.90
16158;DHT22;8184;60.256;18.694;2022-09-19T10:55:20;12.00;99.90
16158;DHT22;8184;60.256;18.694;2022-09-19T10:57:51;12.00;99.90
16158;DHT22;8184;60.256;18.694;2022-09-19T11:00:28;12.10;99.90
16158;DHT22;8184;60.256;18.694;2022-09-19T11:02:58;12.10;99.90
16158;DHT22;8184;60.256;18.694;2022-09-19T11:05:28;11.90;99.90
16158;DHT22;8184;60.256;18.694;2022-09-19T11:07:57;12.00;99.90
16158;DHT22;8184;60.256;18.694;2022-09-19T11:10:32;12.00;99.90
16158;DHT22;8184;60.256;18.694;2022-09-19T11:13:04;12.10;99.90
16158;DHT22;8184;60.256;18.694;2022-09-19T11:15:33;12.20;99.90
16158;DHT22;8184;60.256;18.694;2022-09-19T11:18:06;12.10;99.90
16158;DHT22;8184;60.256;18.694;2022-09-19T11:20:46;12.20;99.90
16158;DHT22;8184;60.256;18.694;2022-09-19T11:26:06;12.20;99.90
16158;DHT22;8184;60.256;18.694;2022-09-19T11:28:40;12.30;99.90
16158;DHT22;8184;60.256;18.694;2022-09-19T11:31:12;12.30;99.90
16158;DHT22;8184;60.256;18.694;2022-09-19T11:34:05;12.20;99.90
16158;DHT22;8184;60.256;18.694;2022-09-19T11:36:59;12.20;99.90
16158;DHT22;8184;60.256;18.694;2022-09-19T11:39:34;12.10;99.90
16158;DHT22;8184;60.256;18.694;2022-09-19T11:42:17;12.10;99.90
16158;DHT22;8184;60.256;18.694;2022-09-19T11:44:49;12.10;99.90
16158;DHT22;8184;60.256;18.694;2022-09-19T11:47:26;12.10;99.90
16158;DHT22;8184;60.256;18.694;2022-09-19T11:50:01;11.70;99.90
16158;DHT22;8184;60.256;18.694;2022-09-19T11:52:37;11.90;99.90
16158;DHT22;8184;60.256;18.694;2022-09-19T11:55:13;11.90;99.90
16158;DHT22;8184;60.256;18.694;2022-09-19T11:57:46;11.80;99.90
16158;DHT22;8184;60.256;18.694;2022-09-19T12:00:17;11.80;99.90
16158;DHT22;8184;60.256;18.694;2022-09-19T12:02:55;11.80;99.90
16158;DHT22;8184;60.256;18.694;2022-09-19T12:05:28;11.90;99.90
16158;DHT22;8184;60.256;18.694;2022-09-19T12:08:03;12.00;99.90
16158;DHT22;8184;60.256;18.694;2022-09-19T12:10:34;11.80;99.90
16158;DHT22;8184;60.256;18.694;2022-09-19T12:13:05;11.80;99.90
16158;DHT22;8184;60.256;18.694;2022-09-19T12:15:45;11.80;99.90
16158;DHT22;8184;60.256;18.694;2022-09-19T12:18:14;11.80;99.90
16158;DHT22;8184;60.256;18.694;2022-09-19T12:20:49;11.70;99.90
16158;DHT22;8184;60.256;18.694;2022-09-19T12:23:20;11.90;99.90
16158;DHT22;8184;60.256;18.694;2022-09-19T12:26:07;11.90;99.90
16158;DHT22;8184;60.256;18.694;2022-09-19T12:28:40;11.80;99.90
16158;DHT22;8184;60.256;18.694;2022-09-19T12:31:16;11.90;99.90
16158;DHT22;8184;60.256;18.694;2022-09-19T12:33:48;11.90;99.90
16158;DHT22;8184;60.256;18.694;2022-09-19T12:36:19;11.90;99.90
16158;DHT22;8184;60.256;18.694;2022-09-19T12:38:53;11.90;99.90
16158;DHT22;8184;60.256;18.694;2022-09-19T12:41:23;12.00;99.90
16158;DHT22;8184;60.256;18.694;2022-09-19T12:43:56;12.00;99.90
16158;DHT22;8184;60.256;18.694;2022-09-19T12:46:31;12.00;99.90
16158;DHT22;8184;60.256;18.694;2022-09-19T12:49:02;11.80;99.90
16158;DHT22;8184;60.256;18.694;2022-09-19T12:51:37;11.90;99.90
16158;DHT22;8184;60.256;18.694;2022-09-19T12:54:08;12.00;99.90
16158;DHT22;8184;60.256;18.694;2022-09-19T12:56:38;11.90;99.90
16158;DHT22;8184;60.256;18.694;2022-09-19T12:59:13;11.80;99.90
16158;DHT22;8184;60.256;18.694;2022-09-19T13:01:43;11.70;99.90
16158;DHT22;8184;60.256;18.694;2022-09-19T13:04:18;11.70;99.90
16158;DHT22;8184;60.256;18.694;2022-09-19T13:06:55;11.90;99.90
16158;DHT22;8184;60.256;18.694;2022-09-19T13:09:25;12.00;99.90
16158;DHT22;8184;60.256;18.694;2022-09-19T13:12:03;12.00;99.90
16158;DHT22;8184;60.256;18.694;2022-09-19T13:14:35;12.00;99.90
16158;DHT22;8184;60.256;18.694;2022-09-19T13:17:09;12.00;99.90
16158;DHT22;8184;60.256;18.694;2022-09-19T13:19:57;12.10;99.90
16158;DHT22;8184;60.256;18.694;2022-09-19T13:22:45;11.90;99.90
16158;DHT22;8184;60.256;18.694;2022-09-19T13:25:31;12.10;99.90
16158;DHT22;8184;60.256;18.694;2022-09-19T13:30:48;12.20;99.90
16158;DHT22;8184;60.256;18.694;2022-09-19T13:33:20;12.20;99.90
16158;DHT22;8184;60.256;18.694;2022-09-19T13:35:49;12.10;99.90
16158;DHT22;8184;60.256;18.694;2022-09-19T13:38:20;12.10;99.90
16158;DHT22;8184;60.256;18.694;2022-09-19T13:40:54;12.00;99.90
16158;DHT22;8184;60.256;18.694;2022-09-19T13:43:33;12.00;99.90
16158;DHT22;8184;60.256;18.694;2022-09-19T13:46:05;12.00;99.90
16158;DHT22;8184;60.256;18.694;2022-09-19T13:48:40;11.90;99.90
16158;DHT22;8184;60.256;18.694;2022-09-19T13:51:11;11.80;99.90
16158;DHT22;8184;60.256;18.694;2022-09-19T13:53:44;11.80;99.90
16158;DHT22;8184;60.256;18.694;2022-09-19T13:56:20;11.90;99.90
16158;DHT22;8184;60.256;18.694;2022-09-19T13:59:06;11.90;99.90
16158;DHT22;8184;60.256;18.694;2022-09-19T14:01:40;11.90;99.90
16158;DHT22;8184;60.256;18.694;2022-09-19T14:04:20;11.80;99.90
16158;DHT22;8184;60.256;18.694;2022-09-19T14:07:06;11.70;99.90
16158;DHT22;8184;60.256;18.694;2022-09-19T14:09:54;11.70;99.90
16158;DHT22;8184;60.256;18.694;2022-09-19T14:15:31;11.80;99.90
16158;DHT22;8184;60.256;18.694;2022-09-19T14:20:58;11.90;99.90
16158;DHT22;8184;60.256;18.694;2022-09-19T14:23:30;11.50;99.90
16158;DHT22;8184;60.256;18.694;2022-09-19T14:25:59;11.40;99.90
16158;DHT22;8184;60.256;18.694;2022-09-19T14:28:37;11.50;99.90
16158;DHT22;8184;60.256;18.694;2022-09-19T14:31:17;11.60;99.90
16158;DHT22;8184;60.256;18.694;2022-09-19T14:36:40;11.70;99.90
16158;DHT22;8184;60.256;18.694;2022-09-19T14:39:14;11.70;99.90
16158;DHT22;8184;60.256;18.694;2022-09-19T14:41:50;11.70;99.90
16158;DHT22;8184;60.256;18.694;2022-09-19T14:44:45;11.80;99.90
16158;DHT22;8184;60.256;18.694;2022-09-19T14:47:18;11.80;99.90
16158;DHT22;8184;60.256;18.694;2022-09-19T14:49:51;11.70;99.90
16158;DHT22;8184;60.256;18.694;2022-09-19T14:52:24;11.70;99.90
16158;DHT22;8184;60.256;18.694;2022-09-19T14:54:54;11.70;99.90
16158;DHT22;8184;60.256;18.694;2022-09-19T14:57:24;11.70;99.90
16158;DHT22;8184;60.256;18.694;2022-09-19T14:59:52;11.70;99.90
16158;DHT22;8184;60.256;18.694;2022-09-19T15:02:22;11.80;99.90
16158;DHT22;8184;60.256;18.694;2022-09-19T15:04:51;11.70;99.90
16158;DHT22;8184;60.256;18.694;2022-09-19T15:07:26;11.50;99.90
16158;DHT22;8184;60.256;18.694;2022-09-19T15:09:54;11.50;99.90
16158;DHT22;8184;60.256;18.694;2022-09-19T15:12:23;11.50;99.90
16158;DHT22;8184;60.256;18.694;2022-09-19T15:14:53;11.60;99.90
16158;DHT22;8184;60.256;18.694;2022-09-19T15:17:24;11.60;99.90
16158;DHT22;8184;60.256;18.694;2022-09-19T15:19:55;11.60;99.90
16158;DHT22;8184;60.256;18.694;2022-09-19T15:22:27;11.50;99.90
16158;DHT22;8184;60.256;18.694;2022-09-19T15:24:58;11.40;99.90
16158;DHT22;8184;60.256;18.694;2022-09-19T15:27:27;11.40;99.90
16158;DHT22;8184;60.256;18.694;2022-09-19T15:29:55;11.40;99.90
16158;DHT22;8184;60.256;18.694;2022-09-19T15:32:28;11.50;99.90
16158;DHT22;8184;60.256;18.694;2022-09-19T15:35:01;11.50;99.90
16158;DHT22;8184;60.256;18.694;2022-09-19T15:37:34;11.50;99.90
16158;DHT22;8184;60.256;18.694;2022-09-19T15:40:04;11.50;99.90
16158;DHT22;8184;60.256;18.694;2022-09-19T15:42:38;11.20;99.90
16158;DHT22;8184;60.256;18.694;2022-09-19T15:45:23;11.10;99.90
16158;DHT22;8184;60.256;18.694;2022-09-19T15:48:01;11.20;99.90
16158;DHT22;8184;60.256;18.694;2022-09-19T15:50:30;11.30;99.90
16158;DHT22;8184;60.256;18.694;2022-09-19T15:53:02;11.30;99.90
16158;DHT22;8184;60.256;18.694;2022-09-19T15:55:30;11.30;99.90
16158;DHT22;8184;60.256;18.694;2022-09-19T15:58:00;11.10;99.90
16158;DHT22;8184;60.256;18.694;2022-09-19T16:00:29;11.10;99.90
16158;DHT22;8184;60.256;18.694;2022-09-19T16:02:59;11.10;99.90
16158;DHT22;8184;60.256;18.694;2022-09-19T16:05:29;11.10;99.90
16158;DHT22;8184;60.256;18.694;2022-09-19T16:07:57;11.10;99.90
16158;DHT22;8184;60.256;18.694;2022-09-19T16:10:45;11.10;99.90
16158;DHT22;8184;60.256;18.694;2022-09-19T16:13:31;11.20;99.90
16158;DHT22;8184;60.256;18.694;2022-09-19T16:16:00;11.20;99.90
16158;DHT22;8184;60.256;18.694;2022-09-19T16:18:44;11.30;99.90